createdAt,value
2017-09-14T00:01:25.946Z,99.90
2017-09-14T00:06:29.129Z,99.90
2017-09-14T00:11:32.349Z,99.90
2017-09-14T00:16:35.565Z,99.90
2017-09-14T00:21:38.809Z,99.90
2017-09-14T00:26:42.792Z,99.90
2017-09-14T00:31:46.102Z,99.90
2017-09-14T00:36:49.292Z,99.90
2017-09-14T00:41:52.530Z,99.90
2017-09-14T00:46:55.769Z,99.90
2017-09-14T00:51:59.727Z,99.90
2017-09-14T00:57:02.924Z,99.90
2017-09-14T01:02:06.127Z,99.90
2017-09-14T01:07:09.301Z,99.90
2017-09-14T01:12:12.496Z,99.90
2017-09-14T01:17:15.744Z,99.90
2017-09-14T01:22:18.946Z,99.90
2017-09-14T01:27:22.145Z,99.90
2017-09-14T01:32:26.236Z,99.90
2017-09-14T01:37:29.420Z,99.90
2017-09-14T01:42:32.620Z,99.90
2017-09-14T01:47:35.827Z,99.90
2017-09-14T01:52:39.052Z,99.90
2017-09-14T01:57:42.258Z,99.90
2017-09-14T02:02:45.452Z,99.90
2017-09-14T02:07:48.673Z,99.90
2017-09-14T02:12:51.880Z,99.90
2017-09-14T02:17:55.082Z,99.90
2017-09-14T02:22:58.438Z,99.90
2017-09-14T02:28:01.673Z,99.90
2017-09-14T02:33:05.820Z,99.90
2017-09-14T02:38:09.100Z,99.90
2017-09-14T02:43:12.401Z,99.90
2017-09-14T02:48:16.357Z,99.90
2017-09-14T02:53:19.570Z,99.90
2017-09-14T02:58:22.780Z,99.90
2017-09-14T03:03:25.973Z,99.90
2017-09-14T03:08:29.186Z,99.90
2017-09-14T03:13:32.647Z,99.90
2017-09-14T03:18:35.864Z,99.90
2017-09-14T03:23:39.899Z,99.90
2017-09-14T03:28:43.865Z,99.90
2017-09-14T03:33:47.096Z,99.90
2017-09-14T03:38:50.321Z,99.90
2017-09-14T03:43:53.568Z,99.90
2017-09-14T03:48:56.773Z,99.90
2017-09-14T03:53:59.994Z,99.90
2017-09-14T03:59:03.228Z,99.90
2017-09-14T04:04:06.576Z,99.90
2017-09-14T04:09:10.553Z,99.90
2017-09-14T04:14:13.765Z,99.90
2017-09-14T04:19:16.985Z,99.90
2017-09-14T04:24:20.197Z,99.90
2017-09-14T04:29:23.430Z,99.90
2017-09-14T04:34:27.430Z,99.90
2017-09-14T04:39:30.658Z,99.90
2017-09-14T04:44:34.637Z,99.90
2017-09-14T04:49:37.861Z,99.90
2017-09-14T04:54:41.058Z,99.90
2017-09-14T04:59:44.269Z,99.90
2017-09-14T05:04:47.580Z,99.90
2017-09-14T05:09:50.906Z,99.90
2017-09-14T05:14:54.909Z,99.90
2017-09-14T05:19:58.135Z,99.90
2017-09-14T05:25:01.352Z,99.90
2017-09-14T05:30:04.535Z,99.90
2017-09-14T05:35:07.764Z,99.90
2017-09-14T05:40:11.805Z,99.90
2017-09-14T05:45:15.761Z,99.90
2017-09-14T05:50:18.999Z,99.90
2017-09-14T05:55:22.241Z,99.90
2017-09-14T06:00:26.229Z,99.90
2017-09-14T06:05:29.425Z,99.90
2017-09-14T06:10:32.740Z,99.90
2017-09-14T06:15:35.992Z,99.90
2017-09-14T06:20:39.965Z,99.90
2017-09-14T06:25:43.313Z,99.90
2017-09-14T06:30:47.283Z,99.90
2017-09-14T06:35:50.503Z,99.90
2017-09-14T06:40:53.723Z,99.90
2017-09-14T06:45:56.927Z,99.90
2017-09-14T06:51:00.177Z,99.90
2017-09-14T06:56:04.150Z,99.90
2017-09-14T07:01:07.352Z,99.90
2017-09-14T07:06:10.545Z,99.90
2017-09-14T07:11:13.741Z,99.90
2017-09-14T07:16:16.918Z,99.90
2017-09-14T07:21:21.014Z,99.90
2017-09-14T07:26:24.265Z,99.90
2017-09-14T07:31:28.241Z,99.90
2017-09-14T07:36:31.445Z,99.90
2017-09-14T07:41:34.660Z,99.90
2017-09-14T07:46:37.863Z,99.90
2017-09-14T07:51:41.084Z,99.90
2017-09-14T07:56:44.289Z,99.90
2017-09-14T08:01:47.493Z,99.90
2017-09-14T08:06:50.714Z,99.90
2017-09-14T08:11:53.912Z,99.90
2017-09-14T08:16:57.273Z,99.90
2017-09-14T08:22:00.553Z,99.90
2017-09-14T08:27:04.517Z,99.90
2017-09-14T08:32:07.735Z,99.90
2017-09-14T08:37:10.970Z,99.90
2017-09-14T08:42:14.198Z,99.90
2017-09-14T08:47:18.157Z,98.60
2017-09-14T08:52:21.366Z,98.60
2017-09-14T08:57:24.637Z,98.10
2017-09-14T09:02:28.589Z,97.70
2017-09-14T09:07:31.795Z,97.70
2017-09-14T09:12:35.208Z,96.50
2017-09-14T09:17:38.426Z,97.60
2017-09-14T09:22:41.646Z,98.20
2017-09-14T09:27:44.932Z,97.40
2017-09-14T09:32:48.142Z,97.60
2017-09-14T09:37:51.369Z,96.30
2017-09-14T09:42:55.531Z,96.10
2017-09-14T09:47:59.510Z,96.40
2017-09-14T09:53:02.739Z,96.30
2017-09-14T09:58:06.047Z,97.00
2017-09-14T10:03:09.254Z,98.00
2017-09-14T10:08:12.483Z,98.00
2017-09-14T10:13:15.700Z,96.80
2017-09-14T10:18:19.722Z,99.40
2017-09-14T10:23:23.684Z,92.50
2017-09-14T10:28:26.890Z,92.40
2017-09-14T10:33:30.098Z,89.80
2017-09-14T10:38:33.332Z,85.10
2017-09-14T10:43:36.674Z,86.60
2017-09-14T10:48:40.641Z,87.30
2017-09-14T10:53:43.876Z,86.70
2017-09-14T10:58:47.093Z,87.60
2017-09-14T11:03:50.328Z,84.50
2017-09-14T11:08:53.590Z,81.30
2017-09-14T11:13:56.785Z,82.70
2017-09-14T11:19:00.014Z,86.30
2017-09-14T11:24:03.385Z,86.50
2017-09-14T11:29:06.600Z,92.00
2017-09-14T11:34:09.821Z,94.50
2017-09-14T11:39:16.060Z,91.40
2017-09-14T11:44:20.687Z,96.30
2017-09-14T11:49:23.957Z,97.10
2017-09-14T11:54:27.172Z,97.60
2017-09-14T11:59:30.375Z,97.60
2017-09-14T12:04:33.587Z,96.60
2017-09-14T12:09:37.801Z,96.40
2017-09-14T12:14:41.744Z,96.30
2017-09-14T12:19:45.732Z,96.60
2017-09-14T12:24:48.998Z,95.80
2017-09-14T12:29:53.009Z,91.30
2017-09-14T12:34:57.531Z,91.60
2017-09-14T12:40:00.942Z,91.50
2017-09-14T12:45:04.144Z,94.60
2017-09-14T12:50:07.406Z,93.40
2017-09-14T12:55:10.733Z,91.20
2017-09-14T13:00:13.978Z,91.50
2017-09-14T13:05:17.238Z,87.20
2017-09-14T13:10:20.451Z,86.10
2017-09-14T13:15:23.691Z,87.30
2017-09-14T13:20:26.924Z,84.50
2017-09-14T13:25:30.914Z,82.80
2017-09-14T13:30:34.500Z,82.70
2017-09-14T13:35:37.749Z,83.10
2017-09-14T13:40:40.958Z,81.30
2017-09-14T13:45:44.203Z,80.10
2017-09-14T13:50:47.505Z,77.90
2017-09-14T13:55:50.754Z,80.50
2017-09-14T14:00:55.081Z,79.30
2017-09-14T14:05:59.323Z,77.20
2017-09-14T14:11:02.675Z,77.00
2017-09-14T14:16:06.676Z,74.50
2017-09-14T14:21:10.073Z,74.60
2017-09-14T14:26:13.334Z,75.60
2017-09-14T14:31:16.544Z,71.90
2017-09-14T14:36:19.759Z,69.00
2017-09-14T14:41:22.966Z,70.90
2017-09-14T14:46:26.269Z,68.50
2017-09-14T14:51:29.829Z,68.10
2017-09-14T14:56:33.035Z,69.50
2017-09-14T15:01:36.275Z,69.10
2017-09-14T15:06:40.321Z,66.50
2017-09-14T15:11:43.529Z,66.50
2017-09-14T15:16:46.763Z,67.10
2017-09-14T15:21:49.988Z,67.50
2017-09-14T15:26:53.289Z,63.60
2017-09-14T15:31:56.537Z,64.70
2017-09-14T15:37:00.563Z,63.90
2017-09-14T15:42:04.616Z,61.60
2017-09-14T15:47:07.921Z,61.20
2017-09-14T15:52:11.134Z,60.70
2017-09-14T15:57:14.380Z,63.30
2017-09-14T16:02:17.593Z,63.50
2017-09-14T16:07:20.838Z,63.70
2017-09-14T16:12:24.035Z,62.20
2017-09-14T16:17:27.336Z,61.80
2017-09-14T16:22:31.307Z,62.50
2017-09-14T16:27:34.612Z,62.50
2017-09-14T16:32:37.802Z,65.20
2017-09-14T16:37:41.016Z,64.10
2017-09-14T16:42:44.219Z,65.70
2017-09-14T16:47:47.447Z,67.90
2017-09-14T16:52:50.665Z,69.60
2017-09-14T16:57:53.876Z,68.30
2017-09-14T17:02:57.189Z,81.00
2017-09-14T17:08:00.395Z,92.70
2017-09-14T17:13:03.649Z,93.00
2017-09-14T17:18:07.276Z,93.10
2017-09-14T17:23:10.523Z,96.70
2017-09-14T17:28:13.795Z,98.90
2017-09-14T17:33:17.036Z,98.30
2017-09-14T17:38:20.255Z,98.10
2017-09-14T17:43:23.747Z,98.10
2017-09-14T17:48:27.053Z,98.40
2017-09-14T17:53:30.306Z,98.60
2017-09-14T17:58:33.652Z,96.90
2017-09-14T18:03:36.898Z,94.90
2017-09-14T18:08:40.099Z,92.50
2017-09-14T18:13:43.286Z,92.60
2017-09-14T18:18:46.490Z,92.00
2017-09-14T18:23:49.704Z,92.00
2017-09-14T18:28:52.925Z,91.80
2017-09-14T18:33:56.125Z,92.20
2017-09-14T18:38:59.358Z,92.20
2017-09-14T18:44:03.344Z,95.60
2017-09-14T18:49:06.549Z,95.60
2017-09-14T18:54:09.778Z,95.30
2017-09-14T18:59:13.017Z,95.90
2017-09-14T19:04:16.990Z,94.60
2017-09-14T19:09:20.221Z,94.50
2017-09-14T19:14:23.461Z,94.60
2017-09-14T19:19:26.735Z,94.10
2017-09-14T19:24:30.013Z,95.60
2017-09-14T19:29:33.421Z,94.80
2017-09-14T19:34:36.657Z,95.90
2017-09-14T19:39:39.963Z,94.60
2017-09-14T19:44:43.170Z,95.40
2017-09-14T19:49:46.369Z,95.50
2017-09-14T19:54:49.657Z,95.50
2017-09-14T19:59:52.976Z,95.50
2017-09-14T20:04:56.191Z,96.20
2017-09-14T20:09:59.433Z,95.90
2017-09-14T20:15:03.415Z,95.30
2017-09-14T20:20:06.663Z,95.20
2017-09-14T20:25:10.207Z,94.70
2017-09-14T20:30:13.430Z,94.50
2017-09-14T20:35:16.668Z,94.20
2017-09-14T20:40:19.905Z,93.20
2017-09-14T20:45:23.934Z,94.30
2017-09-14T20:50:27.903Z,94.30
2017-09-14T20:55:31.160Z,94.30
2017-09-14T21:00:34.353Z,96.70
2017-09-14T21:05:37.566Z,96.40
2017-09-14T21:10:41.586Z,95.90
2017-09-14T21:15:44.953Z,95.90
2017-09-14T21:20:48.266Z,95.40
2017-09-14T21:25:51.498Z,95.40
2017-09-14T21:30:54.699Z,96.50
2017-09-14T21:35:58.159Z,97.20
2017-09-14T21:41:02.131Z,96.10
2017-09-14T21:46:05.391Z,96.10
2017-09-14T21:51:09.385Z,96.40
2017-09-14T21:56:12.598Z,96.40
2017-09-14T22:01:15.830Z,95.50
2017-09-14T22:06:19.072Z,96.00
2017-09-14T22:11:22.277Z,96.70
2017-09-14T22:16:25.534Z,97.20
2017-09-14T22:21:28.730Z,96.60
2017-09-14T22:26:31.931Z,97.20
2017-09-14T22:31:35.124Z,95.30
2017-09-14T22:36:38.326Z,95.00
2017-09-14T22:41:41.545Z,93.80
2017-09-14T22:46:44.820Z,93.40
2017-09-14T22:51:48.033Z,90.90
2017-09-14T22:56:51.288Z,91.20
2017-09-14T23:01:55.388Z,92.10
2017-09-14T23:06:58.710Z,92.10
2017-09-14T23:12:01.899Z,91.50
2017-09-14T23:17:05.153Z,91.70
2017-09-14T23:22:09.179Z,93.40
2017-09-14T23:27:13.154Z,92.90
2017-09-14T23:32:16.405Z,92.90
2017-09-14T23:37:20.389Z,92.20
2017-09-14T23:42:23.615Z,92.30
2017-09-14T23:47:26.855Z,93.20
2017-09-14T23:52:30.893Z,94.30
2017-09-14T23:57:34.096Z,94.30
